Time;durP1;ratioP1;P1;durP2;ratioP2;P2;SDS_P1;SDS_P2;PMS_P1;PMS_P2;Temp;Humidity;BMP_temperature;BMP_pressure;BME280_temperature;BME280_humidity;BME280_pressure;Samples;Min_cycle;Max_cycle;Signal;HPM_P1;HPM_P2
2022/03/27 00:02:18;;;;;;;42.17;28.77;;;7.50;99.90;;;;;;5018232;28;20271;-66
2022/03/27 00:04:44;;;;;;;37.13;24.47;;;7.50;99.90;;;;;;5016746;28;20593;-66
2022/03/27 00:07:10;;;;;;;39.27;23.60;;;7.50;99.90;;;;;;5019559;28;20330;-66
2022/03/27 00:09:36;;;;;;;38.60;27.97;;;7.50;99.90;;;;;;5017991;28;20314;-66
2022/03/27 00:12:02;;;;;;;46.53;29.37;;;7.40;99.90;;;;;;5019129;28;20191;-67
2022/03/27 00:14:28;;;;;;;45.27;30.27;;;7.40;99.90;;;;;;4997092;28;20202;-65
2022/03/27 00:16:53;;;;;;;51.23;30.07;;;7.40;99.90;;;;;;5015758;28;20184;-66
2022/03/27 00:19:20;;;;;;;43.50;30.60;;;7.30;99.90;;;;;;5019612;28;20315;-66
2022/03/27 00:21:46;;;;;;;56.90;36.70;;;7.20;99.90;;;;;;5013372;28;20200;-65
2022/03/27 00:24:11;;;;;;;44.63;32.30;;;7.20;99.90;;;;;;5013501;28;20667;-65
2022/03/27 00:26:37;;;;;;;40.27;30.93;;;7.20;99.90;;;;;;5018873;28;20826;-67
2022/03/27 00:29:02;;;;;;;49.90;31.63;;;7.30;99.90;;;;;;5014938;28;20234;-67
2022/03/27 00:31:35;;;;;;;45.33;30.73;;;7.20;99.90;;;;;;5022221;28;20267;-67
2022/03/27 00:34:01;;;;;;;42.37;28.57;;;7.20;99.90;;;;;;5015857;28;20349;-66
2022/03/27 00:36:27;;;;;;;43.07;30.93;;;7.10;99.90;;;;;;5022566;28;20587;-65
2022/03/27 00:38:52;;;;;;;110.77;62.77;;;7.10;99.90;;;;;;5017952;28;20227;-67
2022/03/27 00:41:18;;;;;;;109.17;67.67;;;7.10;99.90;;;;;;5015846;28;20245;-67
2022/03/27 00:43:43;;;;;;;100.70;58.40;;;7.00;99.90;;;;;;5015276;28;20202;-68
2022/03/27 00:46:10;;;;;;;89.47;51.97;;;7.00;99.90;;;;;;5017108;28;20180;-68
2022/03/27 00:48:36;;;;;;;77.17;45.60;;;7.00;99.90;;;;;;5012470;28;20196;-67
2022/03/27 00:51:02;;;;;;;75.83;42.53;;;7.00;99.90;;;;;;5017543;28;20176;-65
2022/03/27 00:53:28;;;;;;;66.87;40.07;;;7.00;99.90;;;;;;5015525;28;20204;-65
2022/03/27 00:55:54;;;;;;;60.23;37.10;;;7.00;99.90;;;;;;5014571;28;20306;-65
2022/03/27 00:58:20;;;;;;;48.33;34.33;;;7.00;99.90;;;;;;5014058;28;20200;-68
2022/03/27 01:00:50;;;;;;;46.77;30.87;;;7.00;99.90;;;;;;5023249;28;20204;-65
2022/03/27 01:03:20;;;;;;;50.27;31.70;;;7.00;99.90;;;;;;5014732;28;20200;-70
2022/03/27 01:05:48;;;;;;;39.07;25.13;;;7.00;99.90;;;;;;5021049;28;20257;-75
2022/03/27 01:08:14;;;;;;;42.07;27.40;;;6.90;99.90;;;;;;5020043;28;20204;-76
2022/03/27 01:10:41;;;;;;;37.40;27.87;;;6.90;99.90;;;;;;5022188;28;20201;-76
2022/03/27 01:13:18;;;;;;;40.37;28.23;;;6.90;99.90;;;;;;5019163;28;20247;-78
2022/03/27 01:15:53;;;;;;;47.10;30.53;;;6.80;99.90;;;;;;5016374;28;20206;-62
2022/03/27 01:18:20;;;;;;;53.57;32.90;;;6.80;99.90;;;;;;5020173;28;20803;-61
2022/03/27 01:20:46;;;;;;;52.97;32.73;;;6.80;99.90;;;;;;5016643;28;20204;-62
2022/03/27 01:23:13;;;;;;;45.47;31.63;;;6.80;99.90;;;;;;5014295;28;20453;-63
2022/03/27 01:25:41;;;;;;;51.43;32.57;;;6.70;99.90;;;;;;5018478;28;20281;-63
2022/03/27 01:28:08;;;;;;;52.47;32.33;;;6.70;99.90;;;;;;5015553;28;20188;-71
2022/03/27 01:30:35;;;;;;;44.03;29.43;;;6.70;99.90;;;;;;5014987;28;20192;-60
2022/03/27 01:33:01;;;;;;;41.30;26.87;;;6.70;99.90;;;;;;5016189;28;20237;-62
2022/03/27 01:35:27;;;;;;;42.80;27.53;;;6.70;99.90;;;;;;5014592;28;20202;-60
2022/03/27 01:37:52;;;;;;;48.37;30.93;;;6.60;99.90;;;;;;5011663;28;20648;-63
2022/03/27 01:40:18;;;;;;;44.83;31.80;;;6.60;99.90;;;;;;5014739;28;20192;-59
2022/03/27 01:42:44;;;;;;;45.77;31.83;;;6.60;99.90;;;;;;5018149;28;20210;-59
2022/03/27 01:45:11;;;;;;;44.43;31.47;;;6.50;99.90;;;;;;5016730;28;20231;-60
2022/03/27 01:47:37;;;;;;;43.30;29.03;;;6.50;99.90;;;;;;5016072;28;20592;-61
2022/03/27 01:50:05;;;;;;;43.63;25.00;;;6.50;99.90;;;;;;5016667;28;20229;-61
2022/03/27 01:52:31;;;;;;;36.57;24.40;;;6.50;99.90;;;;;;5015638;28;20207;-61
2022/03/27 01:54:57;;;;;;;36.80;23.63;;;6.30;99.90;;;;;;5013456;28;20200;-64
2022/03/27 01:57:22;;;;;;;31.53;22.57;;;6.30;99.90;;;;;;5014255;28;20638;-61
2022/03/27 01:59:47;;;;;;;34.13;25.57;;;6.30;99.90;;;;;;5016128;28;20214;-62
2022/03/27 02:02:13;;;;;;;33.67;22.83;;;6.30;99.90;;;;;;5014456;28;20217;-62
2022/03/27 02:04:39;;;;;;;38.23;26.63;;;6.30;99.90;;;;;;5019823;28;20302;-61
2022/03/27 02:07:04;;;;;;;34.97;23.53;;;6.30;99.90;;;;;;5005603;28;20189;-62
2022/03/27 02:09:30;;;;;;;33.13;21.17;;;6.30;99.90;;;;;;5018311;28;20207;-61
2022/03/27 02:11:55;;;;;;;37.40;21.47;;;6.30;99.90;;;;;;5013474;28;20211;-62
2022/03/27 02:14:21;;;;;;;33.30;22.20;;;6.30;99.90;;;;;;5014433;28;20211;-62
2022/03/27 02:16:47;;;;;;;24.80;19.03;;;6.30;99.90;;;;;;5019533;28;20228;-61
2022/03/27 02:19:13;;;;;;;24.93;20.27;;;6.30;99.90;;;;;;5017306;28;20195;-61
2022/03/27 02:21:40;;;;;;;27.87;20.53;;;6.20;99.90;;;;;;5024008;28;20265;-61
2022/03/27 02:24:06;;;;;;;30.97;19.80;;;6.20;99.90;;;;;;5015299;28;20198;-61
2022/03/27 02:26:32;;;;;;;24.10;16.53;;;6.20;99.90;;;;;;5009155;28;20240;-62
2022/03/27 02:28:58;;;;;;;28.27;17.37;;;6.10;99.90;;;;;;5018653;28;20599;-61
2022/03/27 02:31:25;;;;;;;25.47;16.27;;;6.00;99.90;;;;;;5008972;28;20303;-61
2022/03/27 02:33:50;;;;;;;34.57;19.70;;;6.00;99.90;;;;;;5023945;28;20305;-61
2022/03/27 02:36:16;;;;;;;35.90;20.73;;;5.90;99.90;;;;;;5028309;28;20283;-61
2022/03/27 02:38:43;;;;;;;22.53;16.30;;;5.90;99.90;;;;;;5020597;28;20200;-61
2022/03/27 02:41:08;;;;;;;26.83;18.27;;;5.90;99.90;;;;;;5015835;28;20193;-61
2022/03/27 02:43:38;;;;;;;25.37;17.87;;;5.90;99.90;;;;;;5012985;28;20208;-61
2022/03/27 02:46:04;;;;;;;21.70;17.30;;;5.90;99.90;;;;;;5022860;28;20227;-60
2022/03/27 02:48:30;;;;;;;26.33;19.50;;;5.80;99.90;;;;;;5016685;28;20226;-61
2022/03/27 02:50:55;;;;;;;25.10;17.80;;;5.80;99.90;;;;;;5018725;28;20207;-61
2022/03/27 02:53:21;;;;;;;23.37;18.67;;;5.70;99.90;;;;;;5012287;28;20716;-61
2022/03/27 02:55:46;;;;;;;20.63;15.50;;;5.70;99.90;;;;;;5021679;28;20203;-62
2022/03/27 02:58:12;;;;;;;21.00;15.30;;;5.60;99.90;;;;;;5011224;28;20208;-62
2022/03/27 03:00:38;;;;;;;19.57;14.50;;;5.60;99.90;;;;;;5011170;28;20296;-61
2022/03/27 03:03:04;;;;;;;21.03;16.57;;;5.40;99.90;;;;;;5020417;28;20347;-61
2022/03/27 03:05:29;;;;;;;18.10;15.17;;;5.50;99.90;;;;;;5019771;28;20233;-61
2022/03/27 03:07:55;;;;;;;18.83;13.93;;;5.60;99.90;;;;;;5018553;28;20203;-62
2022/03/27 03:10:21;;;;;;;15.93;12.83;;;5.60;99.90;;;;;;5007707;28;20761;-61
2022/03/27 03:12:46;;;;;;;17.60;13.20;;;5.50;99.90;;;;;;5016074;28;20250;-62
2022/03/27 03:15:12;;;;;;;17.03;13.57;;;5.40;99.90;;;;;;5010846;28;20611;-62
2022/03/27 03:17:38;;;;;;;15.90;14.17;;;5.50;99.90;;;;;;5027914;28;20269;-61
2022/03/27 03:20:05;;;;;;;19.57;13.23;;;5.50;99.90;;;;;;5006334;28;20239;-62
2022/03/27 03:22:30;;;;;;;20.63;13.10;;;5.60;99.90;;;;;;5022507;28;20245;-62
2022/03/27 03:24:56;;;;;;;16.80;14.27;;;5.60;99.90;;;;;;5010298;28;20223;-61
2022/03/27 03:27:21;;;;;;;17.37;13.13;;;5.70;99.90;;;;;;5013775;28;20224;-62
2022/03/27 03:29:47;;;;;;;14.57;12.47;;;5.70;99.90;;;;;;5013242;28;20211;-62
2022/03/27 03:32:12;;;;;;;18.20;13.93;;;5.70;99.90;;;;;;5008403;28;20220;-62
2022/03/27 03:34:38;;;;;;;15.40;12.97;;;5.70;99.90;;;;;;5010238;28;20230;-62
2022/03/27 03:37:04;;;;;;;13.87;12.10;;;5.70;99.90;;;;;;5018251;28;20524;-61
2022/03/27 03:39:29;;;;;;;18.67;15.17;;;5.70;99.90;;;;;;5018329;28;20636;-62
2022/03/27 03:41:55;;;;;;;14.87;12.40;;;5.70;99.90;;;;;;5021661;28;20188;-62
2022/03/27 03:44:21;;;;;;;17.73;15.07;;;5.70;99.90;;;;;;5015010;28;20701;-63
2022/03/27 03:46:46;;;;;;;15.73;12.63;;;5.70;99.90;;;;;;5008443;28;20184;-63
2022/03/27 03:49:12;;;;;;;15.27;12.27;;;5.70;99.90;;;;;;5011149;28;20673;-61
2022/03/27 03:51:38;;;;;;;15.63;12.27;;;5.70;99.90;;;;;;5013130;28;20303;-61
2022/03/27 03:54:06;;;;;;;16.63;12.70;;;5.60;99.90;;;;;;5018071;28;20221;-61
2022/03/27 03:56:32;;;;;;;14.57;12.93;;;5.60;99.90;;;;;;5012182;28;20614;-62
2022/03/27 03:58:58;;;;;;;14.43;13.03;;;5.60;99.90;;;;;;5012754;28;20192;-64
2022/03/27 04:01:23;;;;;;;16.40;12.57;;;5.60;99.90;;;;;;5009730;28;20293;-60
2022/03/27 04:03:49;;;;;;;16.60;12.93;;;5.50;99.90;;;;;;4994862;28;20196;-61
2022/03/27 04:06:15;;;;;;;20.07;14.27;;;5.60;99.90;;;;;;5019242;28;20206;-61
2022/03/27 04:08:40;;;;;;;19.03;15.83;;;5.50;99.90;;;;;;5007752;28;20576;-61
2022/03/27 04:11:06;;;;;;;25.33;16.17;;;5.50;99.90;;;;;;5016135;28;20608;-61
2022/03/27 04:13:31;;;;;;;21.60;14.60;;;5.50;99.90;;;;;;5018133;28;20251;-61
2022/03/27 04:15:57;;;;;;;16.93;14.37;;;5.50;99.90;;;;;;5007520;28;20207;-61
2022/03/27 04:18:22;;;;;;;16.37;14.00;;;5.50;99.90;;;;;;5012774;28;20733;-62
2022/03/27 04:20:48;;;;;;;19.13;14.37;;;5.40;99.90;;;;;;5006384;28;20403;-60
2022/03/27 04:23:14;;;;;;;20.07;13.43;;;5.40;99.90;;;;;;5017477;28;20195;-61
2022/03/27 04:25:40;;;;;;;17.93;13.00;;;5.40;99.90;;;;;;5014198;28;20240;-61
2022/03/27 04:28:08;;;;;;;16.27;11.93;;;5.40;99.90;;;;;;5013736;28;20295;-61
2022/03/27 04:30:34;;;;;;;17.73;12.97;;;5.40;99.90;;;;;;5020148;28;20204;-61
2022/03/27 04:32:59;;;;;;;17.53;13.37;;;5.40;99.90;;;;;;5017249;28;20208;-61
2022/03/27 04:35:25;;;;;;;19.80;14.17;;;5.40;99.90;;;;;;5005934;28;20204;-61
2022/03/27 04:37:50;;;;;;;19.07;12.87;;;5.40;99.90;;;;;;5013430;28;20302;-61
2022/03/27 04:40:16;;;;;;;16.83;13.87;;;5.40;99.90;;;;;;5023986;28;20994;-60
2022/03/27 04:42:42;;;;;;;17.70;13.63;;;5.40;99.90;;;;;;4992488;28;20294;-61
2022/03/27 04:45:08;;;;;;;16.20;13.37;;;5.40;99.90;;;;;;5012605;28;20203;-60
2022/03/27 04:47:34;;;;;;;21.63;13.57;;;5.40;99.90;;;;;;5010425;28;20669;-61
2022/03/27 04:50:00;;;;;;;18.13;13.63;;;5.40;99.90;;;;;;5005074;28;20197;-62
2022/03/27 04:52:26;;;;;;;17.80;13.50;;;5.40;99.90;;;;;;5017929;28;20216;-62
2022/03/27 04:54:51;;;;;;;18.43;14.00;;;5.40;99.90;;;;;;5016172;28;20208;-62
2022/03/27 04:57:17;;;;;;;22.23;15.00;;;5.40;99.90;;;;;;5016172;28;20249;-62
2022/03/27 04:59:42;;;;;;;17.63;12.70;;;5.40;99.90;;;;;;5013890;28;20210;-61
2022/03/27 05:02:08;;;;;;;16.60;13.07;;;5.40;99.90;;;;;;5011591;28;20180;-62
2022/03/27 05:04:33;;;;;;;17.07;11.53;;;5.30;99.90;;;;;;5018066;28;20196;-62
2022/03/27 05:06:59;;;;;;;18.40;13.87;;;5.30;99.90;;;;;;5016496;28;20290;-61
2022/03/27 05:09:24;;;;;;;15.07;12.60;;;5.40;99.90;;;;;;5015080;28;20192;-60
2022/03/27 05:11:50;;;;;;;14.57;12.63;;;5.30;99.90;;;;;;5012930;28;20245;-61
2022/03/27 05:14:16;;;;;;;15.40;12.73;;;5.40;99.90;;;;;;5008915;28;20238;-65
2022/03/27 05:16:42;;;;;;;13.10;11.73;;;5.40;99.90;;;;;;5011138;28;20650;-61
2022/03/27 05:19:07;;;;;;;16.00;12.13;;;5.30;99.90;;;;;;5009997;28;20199;-63
2022/03/27 05:21:34;;;;;;;17.30;12.63;;;5.30;99.90;;;;;;5013474;28;20199;-61
2022/03/27 05:24:00;;;;;;;38.87;19.07;;;5.30;99.90;;;;;;5016394;28;20227;-62
2022/03/27 05:26:27;;;;;;;32.20;17.50;;;5.30;99.90;;;;;;5007802;28;20293;-62
2022/03/27 05:28:53;;;;;;;22.77;15.13;;;5.40;99.90;;;;;;5020389;28;20204;-61
2022/03/27 05:31:19;;;;;;;21.77;12.03;;;5.40;99.90;;;;;;5009569;28;20194;-63
2022/03/27 05:33:44;;;;;;;16.50;12.43;;;5.40;99.90;;;;;;5004520;28;20739;-62
2022/03/27 05:36:10;;;;;;;15.50;13.50;;;5.40;99.90;;;;;;5020548;28;20234;-64
2022/03/27 05:38:40;;;;;;;18.40;12.90;;;5.40;99.90;;;;;;4998465;28;20530;-64
2022/03/27 05:41:06;;;;;;;15.00;13.00;;;5.30;99.90;;;;;;5018458;28;20659;-63
2022/03/27 05:43:32;;;;;;;18.80;13.60;;;5.30;99.90;;;;;;5003773;28;20250;-63
2022/03/27 05:45:58;;;;;;;19.83;13.40;;;5.40;99.90;;;;;;5022952;28;20607;-63
2022/03/27 05:48:23;;;;;;;19.23;14.80;;;5.40;99.90;;;;;;5004873;28;20207;-63
2022/03/27 05:50:49;;;;;;;17.27;14.97;;;5.30;99.90;;;;;;5017985;28;20720;-63
2022/03/27 05:53:15;;;;;;;21.77;15.23;;;5.40;99.90;;;;;;5003591;28;20750;-63
2022/03/27 05:55:41;;;;;;;21.17;15.27;;;5.40;99.90;;;;;;5005500;28;20221;-63
2022/03/27 05:58:07;;;;;;;21.17;17.03;;;5.30;99.90;;;;;;5012064;28;20200;-63
2022/03/27 06:00:33;;;;;;;26.10;17.43;;;5.40;99.90;;;;;;5010138;28;20287;-62
2022/03/27 06:02:59;;;;;;;20.93;15.83;;;5.30;99.90;;;;;;5005085;28;20597;-63
2022/03/27 06:05:25;;;;;;;20.43;16.53;;;5.30;99.90;;;;;;5011560;28;20283;-63
2022/03/27 06:07:56;;;;;;;20.57;16.10;;;5.30;99.90;;;;;;5022423;28;20590;-63
2022/03/27 06:10:24;;;;;;;19.20;14.30;;;5.30;99.90;;;;;;5013909;28;20196;-64
2022/03/27 06:12:51;;;;;;;19.57;15.10;;;5.30;99.90;;;;;;5014381;28;20226;-63
2022/03/27 06:15:17;;;;;;;19.93;14.47;;;5.40;99.90;;;;;;5012764;28;20231;-63
2022/03/27 06:17:44;;;;;;;21.83;14.93;;;5.50;99.90;;;;;;5014320;28;20615;-62
2022/03/27 06:20:17;;;;;;;19.13;16.07;;;5.50;99.90;;;;;;5013865;28;20195;-63
2022/03/27 06:22:42;;;;;;;17.03;14.30;;;5.60;99.90;;;;;;5011696;28;20235;-63
2022/03/27 06:25:09;;;;;;;18.87;14.23;;;5.70;99.90;;;;;;5011644;28;20250;-63
2022/03/27 06:27:36;;;;;;;17.53;13.63;;;5.70;99.90;;;;;;5011663;28;20246;-63
2022/03/27 06:30:03;;;;;;;17.20;14.50;;;5.80;99.90;;;;;;5012186;28;20229;-63
2022/03/27 06:32:29;;;;;;;18.93;14.47;;;5.90;99.90;;;;;;5019359;28;20246;-63
2022/03/27 06:34:57;;;;;;;18.97;15.47;;;5.90;99.90;;;;;;5021187;28;21045;-62
2022/03/27 06:37:22;;;;;;;20.57;15.93;;;6.00;99.90;;;;;;5021998;28;20265;-63
2022/03/27 06:39:49;;;;;;;19.47;15.33;;;6.10;99.90;;;;;;5021954;28;20611;-62
2022/03/27 06:42:14;;;;;;;19.03;15.30;;;6.20;99.90;;;;;;5009100;28;20196;-63
2022/03/27 06:44:40;;;;;;;20.47;16.20;;;6.30;99.90;;;;;;5003907;28;20759;-63
2022/03/27 06:47:07;;;;;;;20.87;15.33;;;6.30;99.90;;;;;;5005458;28;20192;-63
2022/03/27 06:49:33;;;;;;;19.53;15.33;;;6.40;99.90;;;;;;5021939;28;20307;-63
2022/03/27 06:51:58;;;;;;;19.23;14.50;;;6.50;99.90;;;;;;5018792;28;20285;-65
2022/03/27 06:54:24;;;;;;;17.97;15.27;;;6.50;99.90;;;;;;5015426;28;20214;-63
2022/03/27 06:56:49;;;;;;;19.87;16.77;;;6.70;99.90;;;;;;5021157;28;20183;-63
2022/03/27 06:59:15;;;;;;;19.20;15.37;;;6.70;99.90;;;;;;5017475;28;20236;-62
2022/03/27 07:04:24;;;;;;;19.97;14.77;;;6.90;99.90;;;;;;5018202;28;20210;-63
2022/03/27 07:06:50;;;;;;;20.77;17.50;;;7.00;99.90;;;;;;5016825;28;20187;-61
2022/03/27 07:09:18;;;;;;;21.20;16.87;;;7.10;99.90;;;;;;5018753;28;20246;-62
2022/03/27 07:11:44;;;;;;;20.97;15.80;;;7.20;99.90;;;;;;5016790;28;20244;-62
2022/03/27 07:14:12;;;;;;;18.13;16.30;;;7.40;99.90;;;;;;5014729;28;20600;-62
2022/03/27 07:16:38;;;;;;;19.33;16.83;;;7.40;99.90;;;;;;5017251;28;20280;-61
2022/03/27 07:19:04;;;;;;;18.87;16.40;;;7.50;99.90;;;;;;5017039;28;20215;-64
2022/03/27 07:21:29;;;;;;;18.27;15.90;;;7.50;99.90;;;;;;5004082;28;20660;-62
2022/03/27 07:23:55;;;;;;;23.33;14.67;;;7.70;99.90;;;;;;5020583;28;20200;-62
2022/03/27 07:26:21;;;;;;;18.43;14.63;;;7.80;99.90;;;;;;5010932;28;20377;-62
2022/03/27 07:28:47;;;;;;;19.40;14.20;;;7.90;99.90;;;;;;5025534;28;20638;-62
2022/03/27 07:31:13;;;;;;;16.47;13.50;;;8.00;99.90;;;;;;5012273;28;20184;-61
2022/03/27 07:33:38;;;;;;;17.87;13.50;;;8.10;99.90;;;;;;5022279;28;20207;-64
2022/03/27 07:36:04;;;;;;;17.63;14.47;;;8.10;99.90;;;;;;5025682;28;20249;-62
2022/03/27 07:38:31;;;;;;;18.17;14.27;;;8.10;99.90;;;;;;5013204;28;20812;-63
2022/03/27 07:40:57;;;;;;;18.83;14.13;;;8.20;99.90;;;;;;5019320;28;20290;-63
2022/03/27 07:43:23;;;;;;;15.67;13.23;;;8.30;99.90;;;;;;5024286;28;20202;-63
2022/03/27 07:45:48;;;;;;;17.60;14.83;;;8.40;99.90;;;;;;5015101;28;20208;-62
2022/03/27 07:48:14;;;;;;;15.80;14.07;;;8.40;99.90;;;;;;5017242;28;20290;-63
2022/03/27 07:50:40;;;;;;;19.60;14.73;;;8.50;99.90;;;;;;5017855;28;20954;-63
2022/03/27 07:53:06;;;;;;;19.27;15.10;;;8.60;99.90;;;;;;5016161;28;20200;-63
2022/03/27 07:55:32;;;;;;;18.50;13.73;;;8.60;99.90;;;;;;5011709;28;20198;-63
2022/03/27 07:57:58;;;;;;;19.37;13.40;;;8.70;99.90;;;;;;5017976;28;20187;-63
2022/03/27 08:00:24;;;;;;;16.77;13.30;;;8.80;99.90;;;;;;5015844;28;20536;-63
2022/03/27 08:02:51;;;;;;;14.10;12.63;;;8.90;99.90;;;;;;5021048;28;20208;-63
2022/03/27 08:05:16;;;;;;;15.70;12.40;;;9.00;99.90;;;;;;5014917;28;20203;-63
2022/03/27 08:07:42;;;;;;;16.63;14.73;;;9.10;99.90;;;;;;5005937;28;20213;-63
2022/03/27 08:10:08;;;;;;;16.10;13.57;;;9.10;99.90;;;;;;5023258;28;20183;-64
2022/03/27 08:12:35;;;;;;;17.80;14.53;;;9.10;99.90;;;;;;5005125;28;20363;-64
2022/03/27 08:15:01;;;;;;;15.40;12.37;;;9.20;99.90;;;;;;5019321;28;20199;-64
2022/03/27 08:17:27;;;;;;;17.13;12.57;;;9.20;99.90;;;;;;5006247;28;20680;-63
2022/03/27 08:19:52;;;;;;;18.13;15.03;;;9.30;99.90;;;;;;5012125;28;20266;-64
2022/03/27 08:22:21;;;;;;;14.23;12.80;;;9.40;99.90;;;;;;5005910;28;20330;-64
2022/03/27 08:24:47;;;;;;;16.40;13.10;;;9.50;99.90;;;;;;5023333;28;20209;-64
2022/03/27 08:27:14;;;;;;;15.33;12.17;;;9.60;99.90;;;;;;5005147;28;20294;-63
2022/03/27 08:29:41;;;;;;;14.00;11.53;;;9.70;99.90;;;;;;5018707;28;20207;-64
2022/03/27 08:32:09;;;;;;;14.70;12.67;;;9.80;99.90;;;;;;5004837;28;20232;-63
2022/03/27 08:34:37;;;;;;;14.03;12.07;;;9.90;99.90;;;;;;5019833;28;20259;-64
2022/03/27 08:37:05;;;;;;;14.33;12.03;;;10.00;99.90;;;;;;5014140;28;20281;-64
2022/03/27 08:39:31;;;;;;;16.60;13.43;;;10.10;99.90;;;;;;5015594;28;20272;-64
2022/03/27 08:41:57;;;;;;;17.70;13.73;;;10.10;99.90;;;;;;5010543;28;20693;-63
2022/03/27 08:44:27;;;;;;;16.40;13.10;;;10.10;99.90;;;;;;5008502;28;20198;-63
2022/03/27 08:46:54;;;;;;;15.73;12.93;;;10.10;99.90;;;;;;5015918;28;20211;-63
2022/03/27 08:49:25;;;;;;;16.80;13.27;;;10.20;99.90;;;;;;5021263;28;20207;-63
2022/03/27 08:52:17;;;;;;;14.93;11.37;;;10.20;99.90;;;;;;5015370;28;20623;-63
2022/03/27 08:55:05;;;;;;;15.57;11.57;;;10.30;99.90;;;;;;4983485;28;20693;-63
2022/03/27 08:57:52;;;;;;;14.03;12.17;;;10.30;99.90;;;;;;5022836;28;20206;-63
2022/03/27 09:00:37;;;;;;;16.60;14.07;;;10.30;99.90;;;;;;5007286;28;20278;-63
2022/03/27 09:03:04;;;;;;;17.07;14.60;;;10.30;99.90;;;;;;5017013;28;20229;-62
2022/03/27 09:05:29;;;;;;;15.93;13.70;;;10.40;99.90;;;;;;5016041;28;20194;-62
2022/03/27 09:07:56;;;;;;;18.10;12.63;;;10.50;99.90;;;;;;5020020;28;20261;-62
2022/03/27 09:10:24;;;;;;;15.67;13.30;;;10.60;99.90;;;;;;5019099;28;20278;-62
2022/03/27 09:12:52;;;;;;;18.43;13.87;;;10.60;99.90;;;;;;5004249;28;20577;-65
2022/03/27 09:15:20;;;;;;;16.40;13.30;;;10.60;99.90;;;;;;5014312;28;20200;-65
2022/03/27 09:18:09;;;;;;;13.53;12.10;;;10.80;99.90;;;;;;5003687;28;20206;-64
2022/03/27 09:20:41;;;;;;;18.83;13.20;;;10.90;99.90;;;;;;5016714;28;20192;-64
2022/03/27 09:23:21;;;;;;;16.60;13.93;;;11.10;99.90;;;;;;5010521;28;20221;-63
2022/03/27 09:25:55;;;;;;;16.93;13.57;;;11.10;99.90;;;;;;5020153;28;20219;-63
2022/03/27 09:28:31;;;;;;;15.93;12.13;;;11.20;99.90;;;;;;5010449;28;20203;-62
2022/03/27 09:31:00;;;;;;;14.53;13.03;;;11.30;99.90;;;;;;5009457;28;20217;-63
2022/03/27 09:33:37;;;;;;;15.63;11.03;;;11.40;99.90;;;;;;5015762;28;20634;-62
2022/03/27 09:36:04;;;;;;;12.03;10.80;;;11.50;99.90;;;;;;5013816;28;20228;-62
2022/03/27 09:38:29;;;;;;;10.23;9.10;;;11.70;99.90;;;;;;5017083;28;20186;-61
2022/03/27 09:40:55;;;;;;;14.83;13.27;;;12.00;99.90;;;;;;5015552;28;20192;-63
2022/03/27 09:43:22;;;;;;;11.10;8.60;;;12.00;99.90;;;;;;5015451;28;20673;-65
2022/03/27 09:45:58;;;;;;;11.17;8.73;;;12.00;99.90;;;;;;5015724;28;20188;-63
2022/03/27 09:48:24;;;;;;;11.10;8.83;;;11.90;99.90;;;;;;5015622;28;20188;-62
2022/03/27 09:50:52;;;;;;;10.97;9.13;;;11.90;99.90;;;;;;5018848;28;20187;-64
2022/03/27 09:53:26;;;;;;;11.40;8.93;;;11.90;99.90;;;;;;5014361;28;20207;-63
2022/03/27 09:55:58;;;;;;;10.03;7.83;;;11.90;99.90;;;;;;5016431;28;20178;-62
2022/03/27 09:58:34;;;;;;;7.33;6.63;;;11.80;99.90;;;;;;5017629;28;20176;-62
2022/03/27 10:01:08;;;;;;;13.10;10.50;;;11.80;99.90;;;;;;5014980;28;20285;-61
2022/03/27 10:03:34;;;;;;;8.90;7.53;;;11.90;99.90;;;;;;5016691;28;20654;-61
2022/03/27 10:06:02;;;;;;;11.17;10.07;;;12.00;99.90;;;;;;5014164;28;20250;-61
2022/03/27 10:08:27;;;;;;;10.03;8.43;;;12.10;99.90;;;;;;5016372;28;20704;-62
2022/03/27 10:10:54;;;;;;;13.07;10.63;;;12.20;99.90;;;;;;5014525;28;20194;-61
2022/03/27 10:13:22;;;;;;;10.63;8.70;;;12.30;99.90;;;;;;5014302;28;20203;-61
2022/03/27 10:15:54;;;;;;;10.23;8.40;;;12.40;99.90;;;;;;5016219;28;20218;-61
2022/03/27 10:18:21;;;;;;;11.27;8.33;;;12.40;99.90;;;;;;5018420;28;20653;-63
2022/03/27 10:20:57;;;;;;;12.63;8.80;;;12.40;99.90;;;;;;5015649;28;20216;-61
2022/03/27 10:23:24;;;;;;;11.27;8.83;;;12.60;99.90;;;;;;5018263;28;20175;-62
2022/03/27 10:25:54;;;;;;;9.03;7.40;;;12.80;99.90;;;;;;5019529;28;20298;-66
2022/03/27 10:28:20;;;;;;;8.87;6.10;;;12.80;99.90;;;;;;5009215;28;20200;-67
2022/03/27 10:30:50;;;;;;;16.00;8.57;;;12.80;99.90;;;;;;5016883;28;20191;-66
2022/03/27 10:33:17;;;;;;;13.63;7.67;;;13.00;99.90;;;;;;5007765;28;20224;-66
2022/03/27 10:36:07;;;;;;;12.97;9.00;;;13.00;99.90;;;;;;5016968;28;20278;-66
2022/03/27 10:38:42;;;;;;;14.20;8.13;;;13.10;99.90;;;;;;5018984;28;20186;-65
2022/03/27 10:41:17;;;;;;;37.73;18.63;;;13.10;99.90;;;;;;5023965;28;20245;-66
2022/03/27 10:43:49;;;;;;;11.50;8.43;;;13.10;99.90;;;;;;5016585;28;20249;-66
2022/03/27 10:46:24;;;;;;;11.70;8.20;;;13.10;99.90;;;;;;5015081;28;20539;-65
2022/03/27 10:48:52;;;;;;;9.90;7.53;;;13.30;99.90;;;;;;5014367;28;20300;-67
2022/03/27 10:51:28;;;;;;;9.83;7.67;;;13.50;99.90;;;;;;5011129;28;20675;-66
2022/03/27 10:54:01;;;;;;;9.33;7.87;;;13.70;99.90;;;;;;5016918;28;20226;-66
2022/03/27 10:56:33;;;;;;;14.33;9.60;;;13.80;99.90;;;;;;5014393;28;20192;-68
2022/03/27 10:59:08;;;;;;;11.97;8.53;;;13.90;99.60;;;;;;5016464;28;20677;-67
2022/03/27 11:01:40;;;;;;;10.93;8.03;;;13.90;99.30;;;;;;5014725;28;20271;-66
2022/03/27 11:04:08;;;;;;;11.87;8.90;;;14.20;99.20;;;;;;5017819;28;20212;-65
2022/03/27 11:06:48;;;;;;;12.83;8.37;;;14.40;99.00;;;;;;5008944;28;20300;-67
2022/03/27 11:09:33;;;;;;;9.30;7.93;;;14.30;98.60;;;;;;5015589;28;20306;-67
2022/03/27 11:12:00;;;;;;;11.10;7.40;;;14.30;98.00;;;;;;5010575;28;20203;-65
2022/03/27 11:14:58;;;;;;;13.43;7.63;;;14.30;98.00;;;;;;5006285;28;20256;-65
2022/03/27 11:17:31;;;;;;;13.37;8.17;;;14.10;97.90;;;;;;5017852;28;20246;-64
2022/03/27 11:19:57;;;;;;;14.13;8.17;;;13.80;97.80;;;;;;5019022;28;20600;-66
2022/03/27 11:22:41;;;;;;;9.23;6.90;;;13.60;97.90;;;;;;5018417;28;20685;-66
2022/03/27 11:25:37;;;;;;;7.47;5.87;;;13.70;98.20;;;;;;5022040;28;20277;-65
2022/03/27 11:28:03;;;;;;;20.67;12.43;;;14.10;97.20;;;;;;5014545;28;20203;-66
2022/03/27 11:30:30;;;;;;;12.73;7.13;;;14.40;96.90;;;;;;5010817;28;20235;-67
2022/03/27 11:33:18;;;;;;;21.07;12.87;;;14.60;96.50;;;;;;5020524;28;21035;-73
2022/03/27 11:36:11;;;;;;;1127.40;999.90;;;14.90;96.70;;;;;;5011832;28;20405;-57
2022/03/27 11:38:54;;;;;;;711.83;668.33;;;16.50;95.30;;;;;;5005784;28;20207;-57
2022/03/27 11:41:38;;;;;;;167.10;159.83;;;17.60;93.00;;;;;;5020969;28;20192;-56
2022/03/27 11:44:22;;;;;;;877.57;816.63;;;18.30;92.40;;;;;;5017154;28;20211;-54
2022/03/27 11:46:55;;;;;;;757.67;709.53;;;19.70;90.00;;;;;;5024001;28;20195;-58
2022/03/27 11:49:23;;;;;;;984.80;902.77;;;20.70;81.30;;;;;;5006082;28;20222;-55
2022/03/27 11:52:07;;;;;;;1009.60;920.13;;;20.50;75.80;;;;;;5012065;28;20200;-57
2022/03/27 11:54:32;;;;;;;40.92;37.35;;;20.60;77.30;;;;;;5004528;28;20678;-63
2022/03/27 11:56:59;;;;;;;7.00;5.43;;;20.70;70.90;;;;;;5017728;28;20189;-71
2022/03/27 11:59:28;;;;;;;10.27;7.13;;;21.20;82.20;;;;;;5023116;28;20200;-68
2022/03/27 12:01:59;;;;;;;20.20;11.47;;;19.10;90.10;;;;;;5018033;28;20183;-62
2022/03/27 12:04:25;;;;;;;8.40;6.27;;;18.60;88.30;;;;;;4975751;28;20200;-62
2022/03/27 12:06:55;;;;;;;21.53;9.53;;;18.20;89.70;;;;;;5015634;28;20295;-71
2022/03/27 12:09:28;;;;;;;23.90;11.10;;;17.50;82.50;;;;;;5012669;28;20196;-64
2022/03/27 12:12:10;;;;;;;25.60;18.37;;;17.80;85.80;;;;;;5015828;28;20671;-65
2022/03/27 12:15:00;;;;;;;4.23;3.83;;;18.40;79.40;;;;;;5019405;28;20217;-67
2022/03/27 12:17:31;;;;;;;5.57;4.80;;;18.40;76.70;;;;;;5023327;28;20660;-64
2022/03/27 12:20:04;;;;;;;6.33;5.70;;;18.10;81.10;;;;;;5019134;28;20701;-64
2022/03/27 12:22:44;;;;;;;5.67;5.17;;;18.00;80.20;;;;;;5020355;28;20203;-63
2022/03/27 12:25:25;;;;;;;6.37;5.60;;;18.10;81.10;;;;;;5017141;28;20208;-63
2022/03/27 12:30:44;;;;;;;5.30;4.80;;;18.20;76.50;;;;;;5023286;28;20192;-66
2022/03/27 12:33:10;;;;;;;4.80;4.40;;;18.20;77.10;;;;;;5017164;28;20211;-66
2022/03/27 12:35:36;;;;;;;7.03;5.30;;;18.70;75.70;;;;;;5024983;28;20637;-68
2022/03/27 12:38:01;;;;;;;5.13;4.10;;;18.60;71.90;;;;;;5019122;28;20204;-64
2022/03/27 12:40:29;;;;;;;5.57;3.70;;;18.80;71.70;;;;;;5019883;28;20221;-63
2022/03/27 12:43:09;;;;;;;7.83;4.13;;;18.90;68.40;;;;;;5018768;28;20195;-63
2022/03/27 12:45:36;;;;;;;8.83;7.53;;;18.80;70.20;;;;;;5019857;28;20226;-63
2022/03/27 12:48:16;;;;;;;4.63;4.13;;;18.50;71.00;;;;;;5019146;28;20207;-67